sensor_id;sensor_type;location;lat;lon;timestamp;temperature;humidity
46752;DHT22;32497;48.936;9.270;2022-11-27T00:01:55;0.70;92.70
46752;DHT22;32497;48.936;9.270;2022-11-27T00:06:58;0.60;92.60
46752;DHT22;32497;48.936;9.270;2022-11-27T00:11:59;0.60;93.00
46752;DHT22;32497;48.936;9.270;2022-11-27T00:17:00;0.60;93.10
46752;DHT22;32497;48.936;9.270;2022-11-27T00:22:02;0.60;92.90
46752;DHT22;32497;48.936;9.270;2022-11-27T00:27:03;0.60;92.60
46752;DHT22;32497;48.936;9.270;2022-11-27T00:32:04;0.50;92.50
46752;DHT22;32497;48.936;9.270;2022-11-27T00:37:07;0.50;92.50
46752;DHT22;32497;48.936;9.270;2022-11-27T00:42:08;0.40;92.60
46752;DHT22;32497;48.936;9.270;2022-11-27T00:47:09;0.20;92.70
46752;DHT22;32497;48.936;9.270;2022-11-27T00:52:11;0.20;92.60
46752;DHT22;32497;48.936;9.270;2022-11-27T00:57:12;0.20;92.10
46752;DHT22;32497;48.936;9.270;2022-11-27T01:02:13;0.10;91.90
46752;DHT22;32497;48.936;9.270;2022-11-27T01:07:16;0.10;91.60
46752;DHT22;32497;48.936;9.270;2022-11-27T01:12:17;0.00;91.90
46752;DHT22;32497;48.936;9.270;2022-11-27T01:17:18;0.00;91.90
46752;DHT22;32497;48.936;9.270;2022-11-27T01:22:20;0.10;92.20
46752;DHT22;32497;48.936;9.270;2022-11-27T01:27:21;0.10;92.30
46752;DHT22;32497;48.936;9.270;2022-11-27T01:32:22;0.00;91.70
46752;DHT22;32497;48.936;9.270;2022-11-27T01:37:25;0.00;91.90
46752;DHT22;32497;48.936;9.270;2022-11-27T01:42:26;0.00;92.00
46752;DHT22;32497;48.936;9.270;2022-11-27T01:47:33;0.00;92.10
46752;DHT22;32497;48.936;9.270;2022-11-27T01:52:43;0.00;92.10
46752;DHT22;32497;48.936;9.270;2022-11-27T01:57:47;0.00;92.10
46752;DHT22;32497;48.936;9.270;2022-11-27T02:02:49;0.00;92.50
46752;DHT22;32497;48.936;9.270;2022-11-27T02:07:52;0.00;92.50
46752;DHT22;32497;48.936;9.270;2022-11-27T02:12:56;0.00;91.90
46752;DHT22;32497;48.936;9.270;2022-11-27T02:18:06;0.00;92.10
46752;DHT22;32497;48.936;9.270;2022-11-27T02:29:02;0.00;92.40
46752;DHT22;32497;48.936;9.270;2022-11-27T02:34:12;0.10;92.80
46752;DHT22;32497;48.936;9.270;2022-11-27T02:39:19;0.10;93.20
46752;DHT22;32497;48.936;9.270;2022-11-27T02:44:22;0.10;92.50
46752;DHT22;32497;48.936;9.270;2022-11-27T02:49:27;0.00;91.70
46752;DHT22;32497;48.936;9.270;2022-11-27T02:54:29;-3276.70;91.40
46752;DHT22;32497;48.936;9.270;2022-11-27T02:59:33;-3276.60;91.40
46752;DHT22;32497;48.936;9.270;2022-11-27T03:04:40;-3276.60;92.20
46752;DHT22;32497;48.936;9.270;2022-11-27T03:09:44;-3276.70;92.10
46752;DHT22;32497;48.936;9.270;2022-11-27T03:14:47;-3276.60;92.00
46752;DHT22;32497;48.936;9.270;2022-11-27T03:19:51;-3276.60;92.40
46752;DHT22;32497;48.936;9.270;2022-11-27T03:24:53;-3276.60;91.80
46752;DHT22;32497;48.936;9.270;2022-11-27T03:29:57;-3276.60;91.80
46752;DHT22;32497;48.936;9.270;2022-11-27T03:34:59;-3276.60;92.20
46752;DHT22;32497;48.936;9.270;2022-11-27T03:40:01;-3276.60;92.40
46752;DHT22;32497;48.936;9.270;2022-11-27T03:45:09;-3276.50;92.40
46752;DHT22;32497;48.936;9.270;2022-11-27T03:50:38;-3276.50;92.70
46752;DHT22;32497;48.936;9.270;2022-11-27T03:55:45;-3276.60;92.80
46752;DHT22;32497;48.936;9.270;2022-11-27T04:00:51;-3276.70;93.50
46752;DHT22;32497;48.936;9.270;2022-11-27T04:05:53;0.00;93.70
46752;DHT22;32497;48.936;9.270;2022-11-27T04:10:54;0.00;93.50
46752;DHT22;32497;48.936;9.270;2022-11-27T04:15:59;0.00;93.10
46752;DHT22;32497;48.936;9.270;2022-11-27T04:21:00;0.00;92.60
46752;DHT22;32497;48.936;9.270;2022-11-27T04:26:01;-3276.70;92.00
46752;DHT22;32497;48.936;9.270;2022-11-27T04:31:04;-3276.60;91.80
46752;DHT22;32497;48.936;9.270;2022-11-27T04:36:05;-3276.50;92.00
46752;DHT22;32497;48.936;9.270;2022-11-27T04:41:06;-3276.50;91.70
46752;DHT22;32497;48.936;9.270;2022-11-27T04:46:09;-3276.50;92.40
46752;DHT22;32497;48.936;9.270;2022-11-27T04:51:10;-3276.50;92.60
46752;DHT22;32497;48.936;9.270;2022-11-27T04:56:11;-3276.50;92.90
46752;DHT22;32497;48.936;9.270;2022-11-27T05:01:13;-3276.70;93.50
46752;DHT22;32497;48.936;9.270;2022-11-27T05:06:15;-3276.60;93.20
46752;DHT22;32497;48.936;9.270;2022-11-27T05:11:16;-3276.60;92.50
46752;DHT22;32497;48.936;9.270;2022-11-27T05:16:21;-3276.50;91.90
46752;DHT22;32497;48.936;9.270;2022-11-27T05:21:24;-3276.50;91.70
46752;DHT22;32497;48.936;9.270;2022-11-27T05:26:25;-3276.40;92.40
46752;DHT22;32497;48.936;9.270;2022-11-27T05:31:27;-3276.40;92.80
46752;DHT22;32497;48.936;9.270;2022-11-27T05:36:29;-3276.40;92.20
46752;DHT22;32497;48.936;9.270;2022-11-27T05:41:31;-3276.30;92.70
46752;DHT22;32497;48.936;9.270;2022-11-27T05:46:33;-3276.30;92.00
46752;DHT22;32497;48.936;9.270;2022-11-27T05:51:34;-3276.20;92.10
46752;DHT22;32497;48.936;9.270;2022-11-27T05:56:35;-3276.20;91.70
46752;DHT22;32497;48.936;9.270;2022-11-27T06:01:38;-3276.20;91.30
46752;DHT22;32497;48.936;9.270;2022-11-27T06:06:39;-3276.20;91.80
46752;DHT22;32497;48.936;9.270;2022-11-27T06:11:40;-3276.10;91.70
46752;DHT22;32497;48.936;9.270;2022-11-27T06:16:43;-3276.00;91.30
46752;DHT22;32497;48.936;9.270;2022-11-27T06:21:44;-3275.90;91.50
46752;DHT22;32497;48.936;9.270;2022-11-27T06:26:46;-3275.70;91.40
46752;DHT22;32497;48.936;9.270;2022-11-27T06:31:48;-3275.70;91.80
46752;DHT22;32497;48.936;9.270;2022-11-27T06:36:50;-3275.70;92.00
46752;DHT22;32497;48.936;9.270;2022-11-27T06:41:51;-3275.70;91.70
46752;DHT22;32497;48.936;9.270;2022-11-27T06:46:54;-3275.60;91.70
46752;DHT22;32497;48.936;9.270;2022-11-27T06:51:55;-3275.60;91.90
46752;DHT22;32497;48.936;9.270;2022-11-27T06:56:56;-3275.50;92.20
46752;DHT22;32497;48.936;9.270;2022-11-27T07:01:58;-3275.40;92.80
46752;DHT22;32497;48.936;9.270;2022-11-27T07:06:59;-3275.50;92.90
46752;DHT22;32497;48.936;9.270;2022-11-27T07:12:00;-3275.70;93.60
46752;DHT22;32497;48.936;9.270;2022-11-27T07:17:02;-3275.80;93.10
46752;DHT22;32497;48.936;9.270;2022-11-27T07:22:04;-3275.90;92.60
46752;DHT22;32497;48.936;9.270;2022-11-27T07:27:05;-3276.00;92.70
46752;DHT22;32497;48.936;9.270;2022-11-27T07:32:07;-3276.10;92.40
46752;DHT22;32497;48.936;9.270;2022-11-27T07:37:08;-3276.20;92.40
46752;DHT22;32497;48.936;9.270;2022-11-27T07:42:09;-3276.40;93.40
46752;DHT22;32497;48.936;9.270;2022-11-27T07:47:12;-3276.70;93.80
46752;DHT22;32497;48.936;9.270;2022-11-27T07:52:13;0.10;93.80
46752;DHT22;32497;48.936;9.270;2022-11-27T07:57:14;0.20;93.60
46752;DHT22;32497;48.936;9.270;2022-11-27T08:02:16;0.40;93.40
46752;DHT22;32497;48.936;9.270;2022-11-27T08:07:17;0.50;93.20
46752;DHT22;32497;48.936;9.270;2022-11-27T08:12:18;0.60;92.70
46752;DHT22;32497;48.936;9.270;2022-11-27T08:17:21;0.50;92.40
46752;DHT22;32497;48.936;9.270;2022-11-27T08:22:22;0.50;92.40
46752;DHT22;32497;48.936;9.270;2022-11-27T08:27:23;0.60;92.30
46752;DHT22;32497;48.936;9.270;2022-11-27T08:32:25;0.60;92.30
46752;DHT22;32497;48.936;9.270;2022-11-27T08:37:26;0.70;92.40
46752;DHT22;32497;48.936;9.270;2022-11-27T08:42:28;0.80;92.90
46752;DHT22;32497;48.936;9.270;2022-11-27T08:47:34;1.00;93.10
46752;DHT22;32497;48.936;9.270;2022-11-27T08:52:36;1.20;93.20
46752;DHT22;32497;48.936;9.270;2022-11-27T08:57:37;1.40;93.00
46752;DHT22;32497;48.936;9.270;2022-11-27T09:02:39;1.60;93.10
46752;DHT22;32497;48.936;9.270;2022-11-27T09:07:40;1.90;93.10
46752;DHT22;32497;48.936;9.270;2022-11-27T09:12:41;2.10;92.80
46752;DHT22;32497;48.936;9.270;2022-11-27T09:17:44;2.40;92.80
46752;DHT22;32497;48.936;9.270;2022-11-27T09:22:45;2.70;92.50
46752;DHT22;32497;48.936;9.270;2022-11-27T09:27:46;2.90;92.10
46752;DHT22;32497;48.936;9.270;2022-11-27T09:32:48;3.10;91.90
46752;DHT22;32497;48.936;9.270;2022-11-27T09:37:49;3.20;91.70
46752;DHT22;32497;48.936;9.270;2022-11-27T09:42:56;3.20;91.60
46752;DHT22;32497;48.936;9.270;2022-11-27T09:48:01;3.30;91.50
46752;DHT22;32497;48.936;9.270;2022-11-27T09:53:08;3.40;91.50
46752;DHT22;32497;48.936;9.270;2022-11-27T09:58:16;3.70;91.80
46752;DHT22;32497;48.936;9.270;2022-11-27T10:03:23;3.90;91.40
46752;DHT22;32497;48.936;9.270;2022-11-27T10:08:31;4.20;91.10
46752;DHT22;32497;48.936;9.270;2022-11-27T10:13:42;4.30;90.90
46752;DHT22;32497;48.936;9.270;2022-11-27T10:18:51;4.60;90.80
46752;DHT22;32497;48.936;9.270;2022-11-27T10:23:59;4.60;90.20
46752;DHT22;32497;48.936;9.270;2022-11-27T10:29:11;4.60;90.70
46752;DHT22;32497;48.936;9.270;2022-11-27T10:34:25;4.70;90.90
46752;DHT22;32497;48.936;9.270;2022-11-27T10:39:32;5.00;89.70
46752;DHT22;32497;48.936;9.270;2022-11-27T10:44:39;5.00;89.30
46752;DHT22;32497;48.936;9.270;2022-11-27T10:49:43;5.30;89.30
46752;DHT22;32497;48.936;9.270;2022-11-27T10:54:48;5.60;89.00
46752;DHT22;32497;48.936;9.270;2022-11-27T11:00:00;5.80;87.40
46752;DHT22;32497;48.936;9.270;2022-11-27T11:05:11;6.10;87.40
46752;DHT22;32497;48.936;9.270;2022-11-27T11:10:24;6.30;84.90
46752;DHT22;32497;48.936;9.270;2022-11-27T11:15:25;6.40;86.10
46752;DHT22;32497;48.936;9.270;2022-11-27T11:20:28;6.60;87.80
46752;DHT22;32497;48.936;9.270;2022-11-27T11:25:29;6.80;87.00
46752;DHT22;32497;48.936;9.270;2022-11-27T11:30:30;7.10;86.40
46752;DHT22;32497;48.936;9.270;2022-11-27T11:35:34;7.30;86.20
46752;DHT22;32497;48.936;9.270;2022-11-27T11:40:36;7.40;84.30
46752;DHT22;32497;48.936;9.270;2022-11-27T11:45:44;7.50;83.60
46752;DHT22;32497;48.936;9.270;2022-11-27T11:50:51;7.70;84.30
46752;DHT22;32497;48.936;9.270;2022-11-27T11:56:02;7.90;82.50
46752;DHT22;32497;48.936;9.270;2022-11-27T12:01:24;8.20;77.90
46752;DHT22;32497;48.936;9.270;2022-11-27T12:06:38;8.30;77.70
46752;DHT22;32497;48.936;9.270;2022-11-27T12:11:45;8.70;76.60
46752;DHT22;32497;48.936;9.270;2022-11-27T12:16:59;8.80;75.40
46752;DHT22;32497;48.936;9.270;2022-11-27T12:22:16;9.00;74.00
46752;DHT22;32497;48.936;9.270;2022-11-27T12:27:26;9.30;72.90
46752;DHT22;32497;48.936;9.270;2022-11-27T12:32:57;9.40;73.90
46752;DHT22;32497;48.936;9.270;2022-11-27T12:38:19;9.50;69.10
46752;DHT22;32497;48.936;9.270;2022-11-27T12:43:24;9.70;65.80
46752;DHT22;32497;48.936;9.270;2022-11-27T12:48:29;9.90;64.70
46752;DHT22;32497;48.936;9.270;2022-11-27T12:53:37;10.20;63.10
46752;DHT22;32497;48.936;9.270;2022-11-27T12:58:42;10.70;59.40
46752;DHT22;32497;48.936;9.270;2022-11-27T13:04:09;10.70;59.40
46752;DHT22;32497;48.936;9.270;2022-11-27T13:09:24;10.00;58.40
46752;DHT22;32497;48.936;9.270;2022-11-27T13:14:26;9.90;62.50
46752;DHT22;32497;48.936;9.270;2022-11-27T13:19:30;10.10;60.30
46752;DHT22;32497;48.936;9.270;2022-11-27T13:24:34;11.00;57.30
46752;DHT22;32497;48.936;9.270;2022-11-27T13:29:40;11.30;56.20
46752;DHT22;32497;48.936;9.270;2022-11-27T13:34:44;10.70;58.00
46752;DHT22;32497;48.936;9.270;2022-11-27T13:39:47;10.40;59.40
46752;DHT22;32497;48.936;9.270;2022-11-27T13:44:53;10.10;60.30
46752;DHT22;32497;48.936;9.270;2022-11-27T13:50:01;9.90;62.40
46752;DHT22;32497;48.936;9.270;2022-11-27T13:55:06;9.60;63.20
46752;DHT22;32497;48.936;9.270;2022-11-27T14:00:11;9.30;61.70
46752;DHT22;32497;48.936;9.270;2022-11-27T14:05:17;9.10;62.50
46752;DHT22;32497;48.936;9.270;2022-11-27T14:10:22;9.10;63.50
46752;DHT22;32497;48.936;9.270;2022-11-27T14:15:25;9.00;63.90
46752;DHT22;32497;48.936;9.270;2022-11-27T14:20:29;8.90;64.30
46752;DHT22;32497;48.936;9.270;2022-11-27T14:25:33;8.90;65.30
46752;DHT22;32497;48.936;9.270;2022-11-27T14:30:40;8.70;65.80
46752;DHT22;32497;48.936;9.270;2022-11-27T14:35:41;8.60;66.30
46752;DHT22;32497;48.936;9.270;2022-11-27T14:40:44;8.40;66.70
46752;DHT22;32497;48.936;9.270;2022-11-27T14:45:47;8.20;66.10
46752;DHT22;32497;48.936;9.270;2022-11-27T14:50:50;8.10;66.50
46752;DHT22;32497;48.936;9.270;2022-11-27T14:55:56;7.90;66.10
46752;DHT22;32497;48.936;9.270;2022-11-27T15:00:59;7.80;66.10
46752;DHT22;32497;48.936;9.270;2022-11-27T15:06:02;7.70;65.50
46752;DHT22;32497;48.936;9.270;2022-11-27T15:11:06;7.50;65.30
46752;DHT22;32497;48.936;9.270;2022-11-27T15:16:13;7.40;64.10
46752;DHT22;32497;48.936;9.270;2022-11-27T15:21:17;7.40;63.20
46752;DHT22;32497;48.936;9.270;2022-11-27T15:26:32;7.30;63.30
46752;DHT22;32497;48.936;9.270;2022-11-27T15:31:35;7.20;63.30
46752;DHT22;32497;48.936;9.270;2022-11-27T15:36:39;7.20;62.50
46752;DHT22;32497;48.936;9.270;2022-11-27T15:41:54;7.10;62.60
46752;DHT22;32497;48.936;9.270;2022-11-27T15:46:57;7.10;62.50
46752;DHT22;32497;48.936;9.270;2022-11-27T15:51:59;7.00;62.70
46752;DHT22;32497;48.936;9.270;2022-11-27T15:57:01;6.80;64.00
46752;DHT22;32497;48.936;9.270;2022-11-27T16:02:03;6.80;64.00
46752;DHT22;32497;48.936;9.270;2022-11-27T16:07:04;6.70;64.20
46752;DHT22;32497;48.936;9.270;2022-11-27T16:12:06;6.60;64.30
46752;DHT22;32497;48.936;9.270;2022-11-27T16:17:07;6.60;64.80
46752;DHT22;32497;48.936;9.270;2022-11-27T16:22:09;6.60;65.90
46752;DHT22;32497;48.936;9.270;2022-11-27T16:27:11;6.60;66.80
46752;DHT22;32497;48.936;9.270;2022-11-27T16:32:12;6.50;68.00
46752;DHT22;32497;48.936;9.270;2022-11-27T16:37:13;6.40;67.80
46752;DHT22;32497;48.936;9.270;2022-11-27T16:42:16;6.40;66.40
46752;DHT22;32497;48.936;9.270;2022-11-27T16:47:17;6.20;67.90
46752;DHT22;32497;48.936;9.270;2022-11-27T16:52:18;6.10;69.10
46752;DHT22;32497;48.936;9.270;2022-11-27T16:57:20;6.10;70.10
46752;DHT22;32497;48.936;9.270;2022-11-27T17:02:21;5.90;70.90
46752;DHT22;32497;48.936;9.270;2022-11-27T17:07:22;5.90;71.50
46752;DHT22;32497;48.936;9.270;2022-11-27T17:12:25;5.80;72.30
46752;DHT22;32497;48.936;9.270;2022-11-27T17:17:26;5.70;71.60
46752;DHT22;32497;48.936;9.270;2022-11-27T17:22:27;5.60;71.90
46752;DHT22;32497;48.936;9.270;2022-11-27T17:27:30;5.60;73.20
46752;DHT22;32497;48.936;9.270;2022-11-27T17:32:31;5.40;73.50
46752;DHT22;32497;48.936;9.270;2022-11-27T17:37:32;5.30;73.90
46752;DHT22;32497;48.936;9.270;2022-11-27T17:42:34;5.20;73.90
46752;DHT22;32497;48.936;9.270;2022-11-27T17:47:35;5.10;74.10
46752;DHT22;32497;48.936;9.270;2022-11-27T17:52:37;5.10;73.80
46752;DHT22;32497;48.936;9.270;2022-11-27T17:57:39;5.00;73.60
46752;DHT22;32497;48.936;9.270;2022-11-27T18:02:40;5.00;74.50
46752;DHT22;32497;48.936;9.270;2022-11-27T18:07:43;4.90;74.60
46752;DHT22;32497;48.936;9.270;2022-11-27T18:12:45;4.80;75.00
46752;DHT22;32497;48.936;9.270;2022-11-27T18:17:47;4.90;75.40
46752;DHT22;32497;48.936;9.270;2022-11-27T18:22:48;4.80;75.50
46752;DHT22;32497;48.936;9.270;2022-11-27T18:27:51;4.80;75.80
46752;DHT22;32497;48.936;9.270;2022-11-27T18:32:52;4.80;76.10
46752;DHT22;32497;48.936;9.270;2022-11-27T18:37:53;4.80;76.40
46752;DHT22;32497;48.936;9.270;2022-11-27T18:42:55;4.80;76.10
46752;DHT22;32497;48.936;9.270;2022-11-27T18:47:56;4.90;76.00
46752;DHT22;32497;48.936;9.270;2022-11-27T18:52:57;4.80;76.10
46752;DHT22;32497;48.936;9.270;2022-11-27T18:58:00;4.90;76.00
46752;DHT22;32497;48.936;9.270;2022-11-27T19:03:01;4.90;75.90
46752;DHT22;32497;48.936;9.270;2022-11-27T19:08:02;4.80;76.50
46752;DHT22;32497;48.936;9.270;2022-11-27T19:13:05;4.80;76.50
46752;DHT22;32497;48.936;9.270;2022-11-27T19:18:06;4.70;76.80
46752;DHT22;32497;48.936;9.270;2022-11-27T19:23:07;4.70;76.70
46752;DHT22;32497;48.936;9.270;2022-11-27T19:28:10;4.70;77.10
46752;DHT22;32497;48.936;9.270;2022-11-27T19:33:12;4.70;77.50
46752;DHT22;32497;48.936;9.270;2022-11-27T19:38:14;4.60;77.80
46752;DHT22;32497;48.936;9.270;2022-11-27T19:43:16;4.60;78.20
46752;DHT22;32497;48.936;9.270;2022-11-27T19:48:17;4.60;78.70
46752;DHT22;32497;48.936;9.270;2022-11-27T19:53:18;4.50;79.20
46752;DHT22;32497;48.936;9.270;2022-11-27T19:58:21;4.50;79.20
46752;DHT22;32497;48.936;9.270;2022-11-27T20:03:22;4.60;78.60
46752;DHT22;32497;48.936;9.270;2022-11-27T20:08:23;4.60;78.50
46752;DHT22;32497;48.936;9.270;2022-11-27T20:13:25;4.60;78.40
46752;DHT22;32497;48.936;9.270;2022-11-27T20:18:27;4.70;78.20
46752;DHT22;32497;48.936;9.270;2022-11-27T20:23:28;4.70;77.70
46752;DHT22;32497;48.936;9.270;2022-11-27T20:28:31;4.70;77.60
46752;DHT22;32497;48.936;9.270;2022-11-27T20:33:32;4.70;77.20
46752;DHT22;32497;48.936;9.270;2022-11-27T20:38:34;4.80;77.70
46752;DHT22;32497;48.936;9.270;2022-11-27T20:43:37;4.70;77.60
46752;DHT22;32497;48.936;9.270;2022-11-27T20:48:38;4.70;78.00
46752;DHT22;32497;48.936;9.270;2022-11-27T20:53:40;4.70;77.90
46752;DHT22;32497;48.936;9.270;2022-11-27T20:58:44;4.70;78.00
46752;DHT22;32497;48.936;9.270;2022-11-27T21:03:47;4.70;77.60
46752;DHT22;32497;48.936;9.270;2022-11-27T21:08:49;4.70;78.40
46752;DHT22;32497;48.936;9.270;2022-11-27T21:13:52;4.70;78.70
46752;DHT22;32497;48.936;9.270;2022-11-27T21:18:53;4.70;78.50
46752;DHT22;32497;48.936;9.270;2022-11-27T21:23:55;4.70;78.50
46752;DHT22;32497;48.936;9.270;2022-11-27T21:28:58;4.70;78.50
46752;DHT22;32497;48.936;9.270;2022-11-27T21:34:01;4.70;78.00
46752;DHT22;32497;48.936;9.270;2022-11-27T21:39:05;4.90;77.50
46752;DHT22;32497;48.936;9.270;2022-11-27T21:44:08;4.90;77.70
46752;DHT22;32497;48.936;9.270;2022-11-27T21:49:12;4.90;78.00
46752;DHT22;32497;48.936;9.270;2022-11-27T21:54:13;5.00;78.20
46752;DHT22;32497;48.936;9.270;2022-11-27T21:59:15;5.00;77.30
46752;DHT22;32497;48.936;9.270;2022-11-27T22:04:16;5.00;77.70
46752;DHT22;32497;48.936;9.270;2022-11-27T22:09:17;4.90;77.80
46752;DHT22;32497;48.936;9.270;2022-11-27T22:14:20;4.90;78.40
46752;DHT22;32497;48.936;9.270;2022-11-27T22:19:21;4.90;78.60
46752;DHT22;32497;48.936;9.270;2022-11-27T22:24:23;4.90;79.10
46752;DHT22;32497;48.936;9.270;2022-11-27T22:29:27;4.80;78.80
46752;DHT22;32497;48.936;9.270;2022-11-27T22:34:29;4.90;78.00
46752;DHT22;32497;48.936;9.270;2022-11-27T22:39:30;5.00;77.40
46752;DHT22;32497;48.936;9.270;2022-11-27T22:44:33;5.00;77.70
46752;DHT22;32497;48.936;9.270;2022-11-27T22:49:34;5.00;79.20
46752;DHT22;32497;48.936;9.270;2022-11-27T22:54:37;5.00;79.70
46752;DHT22;32497;48.936;9.270;2022-11-27T22:59:40;4.90;80.10
46752;DHT22;32497;48.936;9.270;2022-11-27T23:04:41;4.90;79.10
46752;DHT22;32497;48.936;9.270;2022-11-27T23:09:42;4.90;79.20
46752;DHT22;32497;48.936;9.270;2022-11-27T23:14:45;4.60;80.40
46752;DHT22;32497;48.936;9.270;2022-11-27T23:19:46;4.60;81.00
46752;DHT22;32497;48.936;9.270;2022-11-27T23:24:47;4.60;80.40
46752;DHT22;32497;48.936;9.270;2022-11-27T23:29:49;4.50;80.90
46752;DHT22;32497;48.936;9.270;2022-11-27T23:34:50;4.50;81.00
46752;DHT22;32497;48.936;9.270;2022-11-27T23:39:51;4.60;81.10
46752;DHT22;32497;48.936;9.270;2022-11-27T23:44:54;4.50;81.70
46752;DHT22;32497;48.936;9.270;2022-11-27T23:49:55;4.50;81.70
46752;DHT22;32497;48.936;9.270;2022-11-27T23:54:56;4.60;81.40
46752;DHT22;32497;48.936;9.270;2022-11-27T23:59:58;4.60;81.50
